sensor_id;sensor_type;location;lat;lon;timestamp;P1;durP1;ratioP1;P2;durP2;ratioP2
75700;SDS011;64321;48.796;44.740;2023-12-20T00:03:54;9.38;;;3.65;;
75700;SDS011;64321;48.796;44.740;2023-12-20T00:08:57;8.38;;;3.25;;
75700;SDS011;64321;48.796;44.740;2023-12-20T00:14:00;11.05;;;3.97;;
75700;SDS011;64321;48.796;44.740;2023-12-20T00:19:02;10.77;;;3.95;;
75700;SDS011;64321;48.796;44.740;2023-12-20T00:24:06;9.07;;;4.00;;
75700;SDS011;64321;48.796;44.740;2023-12-20T00:29:09;12.38;;;4.65;;
75700;SDS011;64321;48.796;44.740;2023-12-20T00:34:11;9.05;;;3.72;;
75700;SDS011;64321;48.796;44.740;2023-12-20T00:39:14;10.02;;;3.97;;
75700;SDS011;64321;48.796;44.740;2023-12-20T00:44:16;9.73;;;3.92;;
75700;SDS011;64321;48.796;44.740;2023-12-20T00:49:19;9.02;;;3.33;;
75700;SDS011;64321;48.796;44.740;2023-12-20T00:54:22;6.35;;;2.78;;
75700;SDS011;64321;48.796;44.740;2023-12-20T00:59:25;9.80;;;3.22;;
75700;SDS011;64321;48.796;44.740;2023-12-20T01:04:27;7.88;;;2.90;;
75700;SDS011;64321;48.796;44.740;2023-12-20T01:09:30;6.75;;;2.55;;
75700;SDS011;64321;48.796;44.740;2023-12-20T01:14:33;6.03;;;2.35;;
75700;SDS011;64321;48.796;44.740;2023-12-20T01:19:35;5.57;;;2.63;;
75700;SDS011;64321;48.796;44.740;2023-12-20T01:24:38;5.53;;;2.85;;
75700;SDS011;64321;48.796;44.740;2023-12-20T01:29:41;8.00;;;2.90;;
75700;SDS011;64321;48.796;44.740;2023-12-20T01:34:43;5.28;;;2.17;;
75700;SDS011;64321;48.796;44.740;2023-12-20T01:39:46;6.65;;;3.17;;
75700;SDS011;64321;48.796;44.740;2023-12-20T01:44:49;8.50;;;2.55;;
75700;SDS011;64321;48.796;44.740;2023-12-20T01:49:52;8.23;;;2.83;;
75700;SDS011;64321;48.796;44.740;2023-12-20T01:54:55;4.95;;;1.25;;
75700;SDS011;64321;48.796;44.740;2023-12-20T02:00:04;6.18;;;2.42;;
75700;SDS011;64321;48.796;44.740;2023-12-20T02:05:07;5.47;;;1.95;;
75700;SDS011;64321;48.796;44.740;2023-12-20T02:10:11;6.57;;;2.53;;
75700;SDS011;64321;48.796;44.740;2023-12-20T02:15:14;5.93;;;2.47;;
75700;SDS011;64321;48.796;44.740;2023-12-20T02:20:17;4.10;;;1.25;;
75700;SDS011;64321;48.796;44.740;2023-12-20T02:25:20;5.43;;;1.58;;
75700;SDS011;64321;48.796;44.740;2023-12-20T02:30:22;4.80;;;2.03;;
75700;SDS011;64321;48.796;44.740;2023-12-20T02:35:28;3.20;;;1.48;;
75700;SDS011;64321;48.796;44.740;2023-12-20T02:40:31;5.95;;;1.85;;
75700;SDS011;64321;48.796;44.740;2023-12-20T02:45:34;4.55;;;2.10;;
75700;SDS011;64321;48.796;44.740;2023-12-20T02:50:37;4.82;;;1.75;;
75700;SDS011;64321;48.796;44.740;2023-12-20T02:55:39;5.70;;;1.73;;
75700;SDS011;64321;48.796;44.740;2023-12-20T03:00:42;3.65;;;1.50;;
75700;SDS011;64321;48.796;44.740;2023-12-20T03:05:45;3.47;;;1.27;;
75700;SDS011;64321;48.796;44.740;2023-12-20T03:10:48;4.38;;;1.70;;
75700;SDS011;64321;48.796;44.740;2023-12-20T03:15:51;3.08;;;1.23;;
75700;SDS011;64321;48.796;44.740;2023-12-20T03:20:53;4.07;;;1.35;;
75700;SDS011;64321;48.796;44.740;2023-12-20T03:25:56;4.07;;;1.55;;
75700;SDS011;64321;48.796;44.740;2023-12-20T03:30:59;9.88;;;1.52;;
75700;SDS011;64321;48.796;44.740;2023-12-20T03:36:02;3.75;;;1.33;;
75700;SDS011;64321;48.796;44.740;2023-12-20T03:41:04;5.10;;;1.92;;
75700;SDS011;64321;48.796;44.740;2023-12-20T03:46:08;3.30;;;1.00;;
75700;SDS011;64321;48.796;44.740;2023-12-20T03:51:11;5.13;;;1.95;;
75700;SDS011;64321;48.796;44.740;2023-12-20T03:56:14;6.85;;;1.95;;
75700;SDS011;64321;48.796;44.740;2023-12-20T04:01:16;5.55;;;2.13;;
75700;SDS011;64321;48.796;44.740;2023-12-20T04:06:19;9.07;;;2.33;;
75700;SDS011;64321;48.796;44.740;2023-12-20T04:11:22;5.00;;;2.08;;
75700;SDS011;64321;48.796;44.740;2023-12-20T04:16:24;7.40;;;2.53;;
75700;SDS011;64321;48.796;44.740;2023-12-20T04:21:27;3.90;;;1.58;;
75700;SDS011;64321;48.796;44.740;2023-12-20T04:26:30;5.97;;;2.67;;
75700;SDS011;64321;48.796;44.740;2023-12-20T04:31:32;5.28;;;2.58;;
75700;SDS011;64321;48.796;44.740;2023-12-20T04:36:35;6.85;;;2.78;;
75700;SDS011;64321;48.796;44.740;2023-12-20T04:41:38;5.55;;;2.08;;
75700;SDS011;64321;48.796;44.740;2023-12-20T04:46:40;5.95;;;1.95;;
75700;SDS011;64321;48.796;44.740;2023-12-20T04:51:43;5.55;;;1.88;;
75700;SDS011;64321;48.796;44.740;2023-12-20T04:56:46;4.18;;;1.88;;
75700;SDS011;64321;48.796;44.740;2023-12-20T05:01:49;8.75;;;2.78;;
75700;SDS011;64321;48.796;44.740;2023-12-20T05:06:52;5.47;;;2.45;;
75700;SDS011;64321;48.796;44.740;2023-12-20T05:11:54;4.63;;;1.88;;
75700;SDS011;64321;48.796;44.740;2023-12-20T05:16:57;7.22;;;2.55;;
75700;SDS011;64321;48.796;44.740;2023-12-20T05:21:59;6.55;;;2.65;;
75700;SDS011;64321;48.796;44.740;2023-12-20T05:27:02;5.88;;;2.65;;
75700;SDS011;64321;48.796;44.740;2023-12-20T05:32:05;7.90;;;3.00;;
75700;SDS011;64321;48.796;44.740;2023-12-20T05:37:08;5.68;;;2.45;;
75700;SDS011;64321;48.796;44.740;2023-12-20T05:42:10;7.85;;;2.58;;
75700;SDS011;64321;48.796;44.740;2023-12-20T05:47:13;6.30;;;3.20;;
75700;SDS011;64321;48.796;44.740;2023-12-20T05:52:16;5.60;;;2.28;;
75700;SDS011;64321;48.796;44.740;2023-12-20T05:57:19;5.45;;;2.25;;
75700;SDS011;64321;48.796;44.740;2023-12-20T06:02:22;6.13;;;2.65;;
75700;SDS011;64321;48.796;44.740;2023-12-20T06:07:24;9.52;;;2.90;;
75700;SDS011;64321;48.796;44.740;2023-12-20T06:12:27;7.82;;;2.58;;
75700;SDS011;64321;48.796;44.740;2023-12-20T06:17:31;8.25;;;2.63;;
75700;SDS011;64321;48.796;44.740;2023-12-20T06:22:34;7.18;;;1.88;;
75700;SDS011;64321;48.796;44.740;2023-12-20T06:27:38;6.43;;;2.67;;
75700;SDS011;64321;48.796;44.740;2023-12-20T06:32:40;7.65;;;2.65;;
75700;SDS011;64321;48.796;44.740;2023-12-20T06:37:44;6.28;;;1.63;;
75700;SDS011;64321;48.796;44.740;2023-12-20T06:42:47;7.43;;;3.53;;
75700;SDS011;64321;48.796;44.740;2023-12-20T06:48:06;7.03;;;2.58;;
75700;SDS011;64321;48.796;44.740;2023-12-20T06:53:09;9.30;;;2.95;;
75700;SDS011;64321;48.796;44.740;2023-12-20T06:58:11;7.63;;;2.88;;
75700;SDS011;64321;48.796;44.740;2023-12-20T07:03:14;6.05;;;2.47;;
75700;SDS011;64321;48.796;44.740;2023-12-20T07:08:17;9.02;;;2.42;;
75700;SDS011;64321;48.796;44.740;2023-12-20T07:13:19;6.88;;;2.63;;
75700;SDS011;64321;48.796;44.740;2023-12-20T07:18:22;4.55;;;2.13;;
75700;SDS011;64321;48.796;44.740;2023-12-20T07:23:25;11.25;;;4.22;;
75700;SDS011;64321;48.796;44.740;2023-12-20T07:28:28;6.35;;;2.53;;
75700;SDS011;64321;48.796;44.740;2023-12-20T07:33:31;9.27;;;3.05;;
75700;SDS011;64321;48.796;44.740;2023-12-20T07:38:40;10.52;;;3.45;;
75700;SDS011;64321;48.796;44.740;2023-12-20T07:43:44;5.72;;;2.28;;
75700;SDS011;64321;48.796;44.740;2023-12-20T07:48:46;8.68;;;3.78;;
75700;SDS011;64321;48.796;44.740;2023-12-20T07:53:49;7.80;;;2.67;;
75700;SDS011;64321;48.796;44.740;2023-12-20T07:58:52;10.45;;;3.42;;
75700;SDS011;64321;48.796;44.740;2023-12-20T08:03:57;7.75;;;3.30;;
75700;SDS011;64321;48.796;44.740;2023-12-20T08:09:00;9.30;;;3.13;;
75700;SDS011;64321;48.796;44.740;2023-12-20T08:14:07;8.43;;;3.00;;
75700;SDS011;64321;48.796;44.740;2023-12-20T08:19:10;7.63;;;2.97;;
75700;SDS011;64321;48.796;44.740;2023-12-20T08:24:13;6.35;;;2.85;;
75700;SDS011;64321;48.796;44.740;2023-12-20T08:29:16;8.18;;;3.00;;
75700;SDS011;64321;48.796;44.740;2023-12-20T08:34:18;5.88;;;2.83;;
75700;SDS011;64321;48.796;44.740;2023-12-20T08:39:21;5.78;;;2.65;;
75700;SDS011;64321;48.796;44.740;2023-12-20T08:44:24;5.78;;;2.15;;
75700;SDS011;64321;48.796;44.740;2023-12-20T08:49:26;7.25;;;2.63;;
75700;SDS011;64321;48.796;44.740;2023-12-20T08:54:30;3.97;;;1.65;;
75700;SDS011;64321;48.796;44.740;2023-12-20T08:59:33;4.45;;;1.83;;
75700;SDS011;64321;48.796;44.740;2023-12-20T09:04:35;5.72;;;2.03;;
75700;SDS011;64321;48.796;44.740;2023-12-20T09:09:38;7.35;;;2.78;;
75700;SDS011;64321;48.796;44.740;2023-12-20T09:14:40;7.85;;;3.08;;
75700;SDS011;64321;48.796;44.740;2023-12-20T09:19:43;6.07;;;1.92;;
75700;SDS011;64321;48.796;44.740;2023-12-20T09:24:47;7.30;;;2.22;;
75700;SDS011;64321;48.796;44.740;2023-12-20T09:29:49;6.25;;;2.22;;
75700;SDS011;64321;48.796;44.740;2023-12-20T09:34:52;7.80;;;2.75;;
75700;SDS011;64321;48.796;44.740;2023-12-20T09:39:55;5.68;;;2.03;;
75700;SDS011;64321;48.796;44.740;2023-12-20T09:44:57;7.50;;;2.75;;
75700;SDS011;64321;48.796;44.740;2023-12-20T09:50:04;6.78;;;2.60;;
75700;SDS011;64321;48.796;44.740;2023-12-20T09:55:08;7.22;;;2.58;;
75700;SDS011;64321;48.796;44.740;2023-12-20T10:00:12;4.78;;;2.08;;
75700;SDS011;64321;48.796;44.740;2023-12-20T10:05:16;5.22;;;2.42;;
75700;SDS011;64321;48.796;44.740;2023-12-20T10:10:23;6.97;;;2.63;;
75700;SDS011;64321;48.796;44.740;2023-12-20T10:15:38;6.80;;;2.53;;
75700;SDS011;64321;48.796;44.740;2023-12-20T10:20:44;7.45;;;2.78;;
75700;SDS011;64321;48.796;44.740;2023-12-20T10:25:56;6.93;;;3.20;;
75700;SDS011;64321;48.796;44.740;2023-12-20T10:31:04;5.70;;;1.80;;
75700;SDS011;64321;48.796;44.740;2023-12-20T10:36:07;7.65;;;2.80;;
75700;SDS011;64321;48.796;44.740;2023-12-20T10:41:11;7.15;;;3.10;;
75700;SDS011;64321;48.796;44.740;2023-12-20T10:46:19;7.10;;;2.47;;
75700;SDS011;64321;48.796;44.740;2023-12-20T10:51:22;7.10;;;2.42;;
75700;SDS011;64321;48.796;44.740;2023-12-20T10:56:26;7.28;;;2.75;;
75700;SDS011;64321;48.796;44.740;2023-12-20T11:01:35;6.18;;;2.72;;
75700;SDS011;64321;48.796;44.740;2023-12-20T11:17:09;6.25;;;1.98;;
75700;SDS011;64321;48.796;44.740;2023-12-20T11:22:15;6.82;;;2.78;;
75700;SDS011;64321;48.796;44.740;2023-12-20T11:27:18;4.50;;;2.17;;
75700;SDS011;64321;48.796;44.740;2023-12-20T11:37:38;4.72;;;1.95;;
75700;SDS011;64321;48.796;44.740;2023-12-20T11:42:50;6.30;;;2.67;;
75700;SDS011;64321;48.796;44.740;2023-12-20T11:47:53;6.47;;;2.20;;
75700;SDS011;64321;48.796;44.740;2023-12-20T11:52:56;5.22;;;2.17;;
75700;SDS011;64321;48.796;44.740;2023-12-20T11:57:59;7.07;;;2.88;;
75700;SDS011;64321;48.796;44.740;2023-12-20T12:03:02;4.97;;;2.40;;
75700;SDS011;64321;48.796;44.740;2023-12-20T12:08:06;6.28;;;3.10;;
75700;SDS011;64321;48.796;44.740;2023-12-20T12:13:10;4.70;;;2.15;;
75700;SDS011;64321;48.796;44.740;2023-12-20T12:18:15;6.03;;;2.60;;
75700;SDS011;64321;48.796;44.740;2023-12-20T12:23:25;6.00;;;3.17;;
75700;SDS011;64321;48.796;44.740;2023-12-20T12:28:28;8.02;;;3.53;;
75700;SDS011;64321;48.796;44.740;2023-12-20T12:33:33;7.10;;;2.83;;
75700;SDS011;64321;48.796;44.740;2023-12-20T12:38:36;6.40;;;2.42;;
75700;SDS011;64321;48.796;44.740;2023-12-20T12:43:40;6.28;;;2.15;;
75700;SDS011;64321;48.796;44.740;2023-12-20T12:48:42;7.13;;;2.70;;
75700;SDS011;64321;48.796;44.740;2023-12-20T12:53:48;8.10;;;3.50;;
75700;SDS011;64321;48.796;44.740;2023-12-20T12:58:50;5.32;;;2.40;;
75700;SDS011;64321;48.796;44.740;2023-12-20T13:03:53;7.72;;;3.30;;
75700;SDS011;64321;48.796;44.740;2023-12-20T13:08:56;9.30;;;3.83;;
75700;SDS011;64321;48.796;44.740;2023-12-20T13:13:59;10.23;;;4.40;;
75700;SDS011;64321;48.796;44.740;2023-12-20T13:19:01;9.00;;;3.83;;
75700;SDS011;64321;48.796;44.740;2023-12-20T13:24:04;11.60;;;4.78;;
75700;SDS011;64321;48.796;44.740;2023-12-20T13:29:07;13.20;;;5.22;;
75700;SDS011;64321;48.796;44.740;2023-12-20T13:34:10;12.95;;;4.97;;
75700;SDS011;64321;48.796;44.740;2023-12-20T13:39:13;10.80;;;4.60;;
75700;SDS011;64321;48.796;44.740;2023-12-20T13:44:16;11.77;;;4.22;;
75700;SDS011;64321;48.796;44.740;2023-12-20T13:49:18;12.30;;;5.05;;
75700;SDS011;64321;48.796;44.740;2023-12-20T13:54:21;14.00;;;5.28;;
75700;SDS011;64321;48.796;44.740;2023-12-20T13:59:24;13.48;;;5.30;;
75700;SDS011;64321;48.796;44.740;2023-12-20T14:04:28;9.35;;;4.32;;
75700;SDS011;64321;48.796;44.740;2023-12-20T14:09:44;16.27;;;5.50;;
75700;SDS011;64321;48.796;44.740;2023-12-20T14:14:48;13.65;;;5.93;;
75700;SDS011;64321;48.796;44.740;2023-12-20T14:19:51;16.60;;;6.68;;
75700;SDS011;64321;48.796;44.740;2023-12-20T14:24:54;15.85;;;6.03;;
75700;SDS011;64321;48.796;44.740;2023-12-20T14:29:56;13.48;;;5.18;;
75700;SDS011;64321;48.796;44.740;2023-12-20T14:34:59;11.80;;;4.80;;
75700;SDS011;64321;48.796;44.740;2023-12-20T14:40:05;14.13;;;5.68;;
75700;SDS011;64321;48.796;44.740;2023-12-20T14:45:19;15.23;;;6.78;;
75700;SDS011;64321;48.796;44.740;2023-12-20T14:50:22;12.95;;;5.55;;
75700;SDS011;64321;48.796;44.740;2023-12-20T14:55:25;10.60;;;5.28;;
75700;SDS011;64321;48.796;44.740;2023-12-20T15:00:29;12.27;;;5.47;;
75700;SDS011;64321;48.796;44.740;2023-12-20T15:05:32;14.35;;;5.72;;
75700;SDS011;64321;48.796;44.740;2023-12-20T15:10:35;13.10;;;6.00;;
75700;SDS011;64321;48.796;44.740;2023-12-20T15:15:37;17.80;;;6.95;;
75700;SDS011;64321;48.796;44.740;2023-12-20T15:20:40;10.70;;;4.72;;
75700;SDS011;64321;48.796;44.740;2023-12-20T15:25:44;14.18;;;6.05;;
75700;SDS011;64321;48.796;44.740;2023-12-20T15:30:47;10.75;;;3.85;;
75700;SDS011;64321;48.796;44.740;2023-12-20T15:35:49;9.27;;;4.70;;
75700;SDS011;64321;48.796;44.740;2023-12-20T15:40:52;11.85;;;5.97;;
75700;SDS011;64321;48.796;44.740;2023-12-20T15:45:55;17.23;;;7.13;;
75700;SDS011;64321;48.796;44.740;2023-12-20T15:50:57;13.00;;;5.25;;
75700;SDS011;64321;48.796;44.740;2023-12-20T15:56:00;15.00;;;6.82;;
75700;SDS011;64321;48.796;44.740;2023-12-20T16:01:03;12.57;;;5.40;;
75700;SDS011;64321;48.796;44.740;2023-12-20T16:06:06;14.82;;;6.90;;
75700;SDS011;64321;48.796;44.740;2023-12-20T16:11:08;10.82;;;5.00;;
75700;SDS011;64321;48.796;44.740;2023-12-20T16:16:11;8.65;;;3.80;;
75700;SDS011;64321;48.796;44.740;2023-12-20T16:21:14;10.68;;;3.95;;
75700;SDS011;64321;48.796;44.740;2023-12-20T16:26:17;11.38;;;4.68;;
75700;SDS011;64321;48.796;44.740;2023-12-20T16:31:20;12.45;;;4.75;;
75700;SDS011;64321;48.796;44.740;2023-12-20T16:36:22;13.70;;;5.32;;
75700;SDS011;64321;48.796;44.740;2023-12-20T16:41:25;12.55;;;4.80;;
75700;SDS011;64321;48.796;44.740;2023-12-20T16:46:28;10.98;;;5.38;;
75700;SDS011;64321;48.796;44.740;2023-12-20T16:51:30;9.70;;;4.30;;
75700;SDS011;64321;48.796;44.740;2023-12-20T16:56:33;8.95;;;4.22;;
75700;SDS011;64321;48.796;44.740;2023-12-20T17:01:36;10.88;;;4.32;;
75700;SDS011;64321;48.796;44.740;2023-12-20T17:06:38;8.77;;;3.67;;
75700;SDS011;64321;48.796;44.740;2023-12-20T17:11:41;10.02;;;4.07;;
75700;SDS011;64321;48.796;44.740;2023-12-20T17:16:44;9.27;;;4.40;;
75700;SDS011;64321;48.796;44.740;2023-12-20T17:21:47;10.35;;;4.25;;
75700;SDS011;64321;48.796;44.740;2023-12-20T17:26:50;13.60;;;5.10;;
75700;SDS011;64321;48.796;44.740;2023-12-20T17:31:53;10.80;;;4.57;;
75700;SDS011;64321;48.796;44.740;2023-12-20T17:36:55;8.25;;;4.35;;
75700;SDS011;64321;48.796;44.740;2023-12-20T17:41:58;7.88;;;3.67;;
75700;SDS011;64321;48.796;44.740;2023-12-20T17:47:01;10.75;;;3.55;;
75700;SDS011;64321;48.796;44.740;2023-12-20T17:52:04;6.22;;;2.47;;
75700;SDS011;64321;48.796;44.740;2023-12-20T17:57:08;5.95;;;3.03;;
75700;SDS011;64321;48.796;44.740;2023-12-20T18:02:11;4.82;;;2.05;;
75700;SDS011;64321;48.796;44.740;2023-12-20T18:07:13;7.50;;;2.50;;
75700;SDS011;64321;48.796;44.740;2023-12-20T18:12:16;6.75;;;2.78;;
75700;SDS011;64321;48.796;44.740;2023-12-20T18:17:19;6.18;;;2.72;;
75700;SDS011;64321;48.796;44.740;2023-12-20T18:22:22;5.35;;;1.85;;
75700;SDS011;64321;48.796;44.740;2023-12-20T18:27:24;6.38;;;1.77;;
75700;SDS011;64321;48.796;44.740;2023-12-20T18:32:27;5.78;;;1.65;;
75700;SDS011;64321;48.796;44.740;2023-12-20T18:37:30;3.92;;;1.50;;
75700;SDS011;64321;48.796;44.740;2023-12-20T18:42:33;4.57;;;1.83;;
75700;SDS011;64321;48.796;44.740;2023-12-20T18:47:35;5.88;;;1.98;;
75700;SDS011;64321;48.796;44.740;2023-12-20T18:52:38;5.32;;;1.30;;
75700;SDS011;64321;48.796;44.740;2023-12-20T18:57:41;5.90;;;1.52;;
75700;SDS011;64321;48.796;44.740;2023-12-20T19:02:45;4.25;;;1.63;;
75700;SDS011;64321;48.796;44.740;2023-12-20T19:07:47;4.88;;;1.77;;
75700;SDS011;64321;48.796;44.740;2023-12-20T19:12:51;3.67;;;0.95;;
75700;SDS011;64321;48.796;44.740;2023-12-20T19:17:53;3.67;;;0.82;;
75700;SDS011;64321;48.796;44.740;2023-12-20T19:22:56;3.47;;;0.90;;
75700;SDS011;64321;48.796;44.740;2023-12-20T19:27:59;2.78;;;1.02;;
75700;SDS011;64321;48.796;44.740;2023-12-20T19:33:01;3.13;;;0.63;;
75700;SDS011;64321;48.796;44.740;2023-12-20T19:38:06;2.88;;;0.90;;
75700;SDS011;64321;48.796;44.740;2023-12-20T19:43:08;2.30;;;0.82;;
75700;SDS011;64321;48.796;44.740;2023-12-20T19:48:11;2.88;;;1.02;;
75700;SDS011;64321;48.796;44.740;2023-12-20T19:53:14;3.45;;;0.95;;
75700;SDS011;64321;48.796;44.740;2023-12-20T19:58:16;3.58;;;1.10;;
75700;SDS011;64321;48.796;44.740;2023-12-20T20:03:19;2.97;;;1.02;;
75700;SDS011;64321;48.796;44.740;2023-12-20T20:08:24;2.60;;;0.90;;
75700;SDS011;64321;48.796;44.740;2023-12-20T20:13:28;4.88;;;1.40;;
75700;SDS011;64321;48.796;44.740;2023-12-20T20:18:30;3.58;;;1.40;;
75700;SDS011;64321;48.796;44.740;2023-12-20T20:23:33;2.08;;;0.82;;
75700;SDS011;64321;48.796;44.740;2023-12-20T20:28:36;3.33;;;0.90;;
75700;SDS011;64321;48.796;44.740;2023-12-20T20:33:38;2.53;;;0.80;;
75700;SDS011;64321;48.796;44.740;2023-12-20T20:38:41;3.67;;;1.45;;
75700;SDS011;64321;48.796;44.740;2023-12-20T20:43:44;2.92;;;0.75;;
75700;SDS011;64321;48.796;44.740;2023-12-20T20:48:47;2.63;;;1.02;;
75700;SDS011;64321;48.796;44.740;2023-12-20T20:53:53;3.67;;;1.00;;
75700;SDS011;64321;48.796;44.740;2023-12-20T20:59:12;3.53;;;1.02;;
75700;SDS011;64321;48.796;44.740;2023-12-20T21:04:14;3.25;;;1.13;;
75700;SDS011;64321;48.796;44.740;2023-12-20T21:09:18;2.03;;;0.73;;
75700;SDS011;64321;48.796;44.740;2023-12-20T21:14:21;2.13;;;1.00;;
75700;SDS011;64321;48.796;44.740;2023-12-20T21:19:23;2.47;;;0.90;;
75700;SDS011;64321;48.796;44.740;2023-12-20T21:24:26;2.88;;;0.80;;
75700;SDS011;64321;48.796;44.740;2023-12-20T21:29:29;2.13;;;0.90;;
75700;SDS011;64321;48.796;44.740;2023-12-20T21:34:31;2.25;;;0.85;;
75700;SDS011;64321;48.796;44.740;2023-12-20T21:39:34;2.78;;;1.17;;
75700;SDS011;64321;48.796;44.740;2023-12-20T21:44:36;2.75;;;1.35;;
75700;SDS011;64321;48.796;44.740;2023-12-20T21:49:39;2.60;;;0.80;;
75700;SDS011;64321;48.796;44.740;2023-12-20T21:54:42;2.63;;;0.80;;
75700;SDS011;64321;48.796;44.740;2023-12-20T21:59:44;1.83;;;0.73;;
75700;SDS011;64321;48.796;44.740;2023-12-20T22:04:47;2.13;;;0.60;;
75700;SDS011;64321;48.796;44.740;2023-12-20T22:09:50;2.53;;;1.00;;
75700;SDS011;64321;48.796;44.740;2023-12-20T22:14:52;2.22;;;0.90;;
75700;SDS011;64321;48.796;44.740;2023-12-20T22:19:55;2.47;;;0.80;;
75700;SDS011;64321;48.796;44.740;2023-12-20T22:24:58;2.63;;;1.30;;
75700;SDS011;64321;48.796;44.740;2023-12-20T22:30:00;2.78;;;0.93;;
75700;SDS011;64321;48.796;44.740;2023-12-20T22:35:06;3.13;;;1.20;;
75700;SDS011;64321;48.796;44.740;2023-12-20T22:40:09;2.85;;;1.10;;
75700;SDS011;64321;48.796;44.740;2023-12-20T22:45:13;3.75;;;1.02;;
75700;SDS011;64321;48.796;44.740;2023-12-20T22:50:15;4.97;;;1.40;;
75700;SDS011;64321;48.796;44.740;2023-12-20T22:55:18;5.55;;;2.05;;
75700;SDS011;64321;48.796;44.740;2023-12-20T23:00:21;6.97;;;2.35;;
75700;SDS011;64321;48.796;44.740;2023-12-20T23:05:26;6.88;;;2.50;;
75700;SDS011;64321;48.796;44.740;2023-12-20T23:10:29;5.93;;;2.08;;
75700;SDS011;64321;48.796;44.740;2023-12-20T23:15:34;6.43;;;2.80;;
75700;SDS011;64321;48.796;44.740;2023-12-20T23:20:37;8.20;;;3.00;;
75700;SDS011;64321;48.796;44.740;2023-12-20T23:25:39;9.43;;;3.15;;
75700;SDS011;64321;48.796;44.740;2023-12-20T23:30:43;9.88;;;3.10;;
75700;SDS011;64321;48.796;44.740;2023-12-20T23:35:46;8.15;;;3.30;;
75700;SDS011;64321;48.796;44.740;2023-12-20T23:40:48;6.47;;;2.90;;
75700;SDS011;64321;48.796;44.740;2023-12-20T23:45:51;9.40;;;3.35;;
75700;SDS011;64321;48.796;44.740;2023-12-20T23:50:53;5.75;;;2.20;;
75700;SDS011;64321;48.796;44.740;2023-12-20T23:55:56;8.57;;;2.72;;
